Time;durP1;ratioP1;P1;durP2;ratioP2;P2;SDS_P1;SDS_P2;PMS_P1;PMS_P2;Temp;Humidity;BMP_temperature;BMP_pressure;BME280_temperature;BME280_humidity;BME280_pressure;Samples;Min_cycle;Max_cycle;Signal;HPM_P1;HPM_P2
2021/08/26 00:09:34;;;;;;;9.70;6.40;;;;;;;12.03;73.23;98114.14;233344;1201;24175;-74
2021/08/26 00:14:38;;;;;;;11.70;7.20;;;;;;;12.07;73.34;98110.26;233323;1202;22367;-72
2021/08/26 00:19:45;;;;;;;8.90;5.80;;;;;;;12.08;73.30;98105.05;233289;1202;22455;-71
2021/08/26 00:24:49;;;;;;;10.40;6.60;;;;;;;12.10;73.30;98095.23;233482;1201;25276;-71
2021/08/26 00:29:57;;;;;;;9.60;6.30;;;;;;;12.12;73.31;98085.88;233440;1201;24148;-73
2021/08/26 00:35:01;;;;;;;11.90;5.80;;;;;;;12.13;73.21;98082.79;233477;1201;25021;-71
2021/08/26 00:40:04;;;;;;;10.90;6.90;;;;;;;12.15;73.27;98075.05;233782;1194;25228;-71
2021/08/26 00:45:08;;;;;;;9.70;5.90;;;;;;;12.17;73.27;98065.17;233382;1201;24076;-72
2021/08/26 00:50:11;;;;;;;10.90;6.90;;;;;;;12.22;73.28;98062.77;233650;1201;22457;-73
2021/08/26 00:55:13;;;;;;;11.30;6.10;;;;;;;12.25;73.10;98058.09;233567;1201;22563;-73
2021/08/26 01:00:16;;;;;;;10.50;6.50;;;;;;;12.28;73.13;98051.17;233537;1201;23413;-73
2021/08/26 01:05:25;;;;;;;9.30;6.00;;;;;;;12.33;73.08;98047.61;233463;1201;24058;-75
2021/08/26 01:10:35;;;;;;;10.70;6.00;;;;;;;12.35;73.00;98040.23;233508;1194;22488;-73
2021/08/26 01:15:39;;;;;;;10.00;6.20;;;;;;;12.37;73.20;98035.50;233471;1201;22459;-71
2021/08/26 01:20:42;;;;;;;11.10;6.50;;;;;;;12.40;73.09;98024.50;233292;1201;24118;-73
2021/08/26 01:25:48;;;;;;;8.40;5.10;;;;;;;12.41;73.23;98021.77;233296;1201;25514;-73
2021/08/26 01:30:51;;;;;;;8.30;5.70;;;;;;;12.45;73.24;98017.75;233348;1202;24576;-73
2021/08/26 01:35:54;;;;;;;10.10;5.70;;;;;;;12.50;73.18;98013.40;233310;1208;25125;-73
2021/08/26 01:41:04;;;;;;;8.80;5.50;;;;;;;12.51;73.15;98001.79;233384;1193;24071;-74
2021/08/26 01:46:17;;;;;;;9.60;5.80;;;;;;;12.54;73.27;98002.95;233146;1202;24101;-74
2021/08/26 01:51:40;;;;;;;7.80;5.20;;;;;;;12.57;73.26;97996.65;233052;1201;22456;-73
2021/08/26 01:56:43;;;;;;;7.50;4.90;;;;;;;12.57;73.31;97992.50;232875;1202;22477;-73
2021/08/26 02:01:45;;;;;;;8.70;5.80;;;;;;;12.57;73.25;97983.48;233409;1197;24043;-74
2021/08/26 02:06:54;;;;;;;8.10;5.30;;;;;;;12.56;73.28;97980.73;233234;1193;24952;-73
2021/08/26 02:12:18;;;;;;;9.40;5.70;;;;;;;12.55;73.25;97975.44;233237;1201;24054;-72
2021/08/26 02:17:21;;;;;;;10.20;6.10;;;;;;;12.54;73.32;97966.98;233341;1201;22566;-72
2021/08/26 02:22:24;;;;;;;8.50;5.10;;;;;;;12.54;73.43;97962.07;233480;1201;24087;-72
2021/08/26 02:27:26;;;;;;;7.60;5.30;;;;;;;12.56;73.48;97955.15;233510;1195;24059;-74
2021/08/26 02:32:29;;;;;;;9.40;5.50;;;;;;;12.58;73.51;97944.89;233313;1201;24104;-73
2021/08/26 02:37:32;;;;;;;9.10;5.00;;;;;;;12.59;73.54;97939.55;233509;1201;24055;-74
2021/08/26 02:42:35;;;;;;;9.80;5.50;;;;;;;12.60;73.41;97934.28;233492;1193;24009;-74
2021/08/26 02:47:38;;;;;;;7.80;4.60;;;;;;;12.60;73.55;97929.23;233285;1193;24068;-71
2021/08/26 02:52:40;;;;;;;6.80;4.30;;;;;;;12.60;73.66;97924.06;233144;1195;24057;-73
2021/08/26 02:57:43;;;;;;;8.00;4.90;;;;;;;12.61;73.55;97928.04;233288;1201;22498;-73
2021/08/26 03:02:59;;;;;;;7.40;4.60;;;;;;;12.64;73.57;97920.89;233219;1201;24048;-73
2021/08/26 03:08:02;;;;;;;7.30;4.60;;;;;;;12.67;73.60;97913.86;233265;1201;22517;-75
2021/08/26 03:13:05;;;;;;;6.60;4.90;;;;;;;12.69;73.46;97909.55;233241;1201;25305;-73
2021/08/26 03:18:09;;;;;;;7.50;4.40;;;;;;;12.72;73.63;97902.96;233173;1201;25171;-73
2021/08/26 03:23:12;;;;;;;7.10;4.60;;;;;;;12.74;73.59;97898.30;233184;1201;24151;-74
2021/08/26 03:28:17;;;;;;;7.40;4.40;;;;;;;12.78;73.50;97903.29;233267;1201;24073;-74
2021/08/26 03:33:20;;;;;;;8.00;4.00;;;;;;;12.80;73.61;97903.46;233381;1201;25210;-73
2021/08/26 03:38:29;;;;;;;8.60;4.60;;;;;;;12.82;73.43;97896.86;233040;1203;22565;-74
2021/08/26 03:43:36;;;;;;;6.70;4.60;;;;;;;12.82;73.44;97893.71;233309;1201;25240;-73
2021/08/26 03:48:39;;;;;;;7.60;4.80;;;;;;;12.84;73.37;97889.62;233273;1202;25331;-74
2021/08/26 03:53:41;;;;;;;6.10;4.70;;;;;;;12.88;73.57;97894.70;233282;1193;24094;-71
2021/08/26 03:58:44;;;;;;;6.70;4.40;;;;;;;12.89;73.86;97898.89;233241;1208;24090;-73
2021/08/26 04:03:47;;;;;;;7.40;4.60;;;;;;;12.88;74.10;97889.93;233211;1201;22450;-72
2021/08/26 04:08:50;;;;;;;6.50;4.40;;;;;;;12.80;74.64;97876.27;233285;1209;25188;-72
2021/08/26 04:13:53;;;;;;;5.70;3.80;;;;;;;12.72;74.75;97877.55;233373;1201;22601;-73
2021/08/26 04:18:58;;;;;;;8.10;4.80;;;;;;;12.68;74.98;97883.58;233260;1201;22910;-74
2021/08/26 04:24:08;;;;;;;7.10;4.20;;;;;;;12.63;75.51;97869.40;233378;1201;24085;-71
2021/08/26 04:29:23;;;;;;;8.30;5.10;;;;;;;12.59;75.91;97853.87;233071;1194;24068;-73
2021/08/26 04:34:26;;;;;;;6.40;4.40;;;;;;;12.58;76.12;97828.19;233043;1201;24537;-72
2021/08/26 04:39:29;;;;;;;7.40;4.70;;;;;;;12.58;76.62;97836.34;233188;1201;22572;-71
2021/08/26 04:44:31;;;;;;;7.80;4.70;;;;;;;12.59;76.55;97838.08;233194;1201;24070;-73
2021/08/26 04:49:34;;;;;;;8.10;5.50;;;;;;;12.61;76.62;97836.83;233036;1202;24023;-73
2021/08/26 04:54:42;;;;;;;8.00;4.70;;;;;;;12.62;76.63;97830.91;233312;1201;22458;-71
2021/08/26 04:59:58;;;;;;;7.20;5.00;;;;;;;12.65;76.74;97833.86;233261;1201;22440;-73
2021/08/26 05:05:01;;;;;;;9.10;4.90;;;;;;;12.70;76.77;97838.96;233382;1201;24062;-72
2021/08/26 05:10:05;;;;;;;7.20;5.20;;;;;;;12.75;76.83;97834.00;233342;1201;25240;-72
2021/08/26 05:15:10;;;;;;;6.80;4.70;;;;;;;12.77;76.80;97830.92;233332;1204;24235;-74
2021/08/26 05:20:13;;;;;;;5.70;4.30;;;;;;;12.81;76.91;97834.87;233177;1201;24058;-73
2021/08/26 05:25:15;;;;;;;8.30;4.40;;;;;;;12.89;77.00;97836.81;233229;1201;24014;-73
2021/08/26 05:30:18;;;;;;;7.40;4.20;;;;;;;12.93;77.17;97835.14;233046;1201;24036;-72
2021/08/26 05:35:21;;;;;;;6.90;4.80;;;;;;;12.96;77.23;97835.16;233423;1201;24068;-73
2021/08/26 05:40:31;;;;;;;8.70;4.90;;;;;;;13.01;77.42;97833.58;233511;1193;24059;-74
2021/08/26 05:45:36;;;;;;;8.80;4.60;;;;;;;13.05;77.65;97824.13;233856;1201;22532;-71
2021/08/26 05:50:50;;;;;;;6.80;4.60;;;;;;;13.12;77.91;97824.61;233821;1201;24058;-73
2021/08/26 05:55:53;;;;;;;5.80;4.40;;;;;;;13.19;77.90;97825.20;234005;1193;22476;-72
2021/08/26 06:00:56;;;;;;;7.00;4.30;;;;;;;13.26;78.01;97830.27;233990;1195;22909;-72
2021/08/26 06:05:58;;;;;;;6.60;4.00;;;;;;;13.31;78.09;97832.52;234551;1195;24189;-72
2021/08/26 06:11:01;;;;;;;7.20;3.60;;;;;;;13.36;78.09;97840.05;233941;1201;22593;-72
2021/08/26 06:16:07;;;;;;;7.10;4.00;;;;;;;13.40;77.86;97839.58;233959;1202;24706;-73
2021/08/26 06:21:10;;;;;;;5.60;3.90;;;;;;;13.43;77.90;97839.42;234241;1202;24095;-73
2021/08/26 06:26:13;;;;;;;6.60;4.00;;;;;;;13.44;77.82;97847.33;233934;1201;22994;-71
2021/08/26 06:31:15;;;;;;;6.70;4.50;;;;;;;13.45;78.12;97853.90;233626;1201;24097;-73
2021/08/26 06:36:18;;;;;;;7.70;4.40;;;;;;;13.38;78.78;97860.23;233630;1201;22448;-72
2021/08/26 06:41:20;;;;;;;7.50;4.30;;;;;;;13.25;79.71;97861.34;233868;1194;25121;-71
2021/08/26 06:46:23;;;;;;;6.90;4.60;;;;;;;13.08;80.42;97857.34;233732;1201;24153;-73
2021/08/26 06:51:25;;;;;;;6.70;4.20;;;;;;;12.95;81.21;97856.95;233530;1201;24096;-71
2021/08/26 06:56:28;;;;;;;9.10;5.50;;;;;;;12.85;82.18;97851.27;233528;1201;22445;-71
2021/08/26 07:01:30;;;;;;;7.50;4.80;;;;;;;12.78;81.97;97850.39;233525;1201;24473;-73
2021/08/26 07:06:32;;;;;;;7.20;4.80;;;;;;;12.81;82.26;97846.60;233523;1201;23156;-73
2021/08/26 07:11:35;;;;;;;8.40;5.30;;;;;;;12.85;82.63;97843.45;233579;1201;24100;-73
2021/08/26 07:16:43;;;;;;;6.80;4.80;;;;;;;12.91;82.87;97840.44;233637;1202;24169;-73
2021/08/26 07:22:05;;;;;;;7.20;5.20;;;;;;;12.94;83.20;97844.85;233504;1196;25407;-72
2021/08/26 07:27:09;;;;;;;6.70;4.70;;;;;;;12.94;83.19;97850.45;233969;1201;24205;-71
2021/08/26 07:32:11;;;;;;;7.50;5.50;;;;;;;12.96;83.39;97850.77;233799;1196;22863;-71
2021/08/26 07:37:14;;;;;;;8.30;4.80;;;;;;;13.03;83.25;97852.64;233567;1201;24165;-73
2021/08/26 07:42:29;;;;;;;6.60;5.00;;;;;;;13.09;83.25;97846.80;233509;1202;24597;-73
2021/08/26 07:47:49;;;;;;;7.70;5.00;;;;;;;13.12;83.09;97846.15;233380;1202;25165;-69
2021/08/26 07:52:52;;;;;;;12.10;5.90;;;;;;;13.16;83.21;97845.46;233670;1201;22455;-71
2021/08/26 07:57:55;;;;;;;8.10;5.60;;;;;;;13.12;83.05;97844.77;233709;1201;24063;-73
2021/08/26 08:02:57;;;;;;;8.90;5.70;;;;;;;13.14;83.35;97844.90;233693;1201;24060;-72
2021/08/26 08:08:00;;;;;;;8.60;5.40;;;;;;;13.20;83.65;97845.34;233677;1202;22473;-73
2021/08/26 08:13:03;;;;;;;5.60;4.50;;;;;;;13.25;83.77;97840.20;233687;1201;24099;-74
2021/08/26 08:18:06;;;;;;;6.90;4.70;;;;;;;13.37;83.70;97831.30;233601;1201;24099;-71
2021/08/26 08:23:15;;;;;;;7.20;4.80;;;;;;;13.48;83.70;97834.54;233613;1201;22511;-71
2021/08/26 08:28:18;;;;;;;6.70;4.90;;;;;;;13.62;83.73;97835.42;233657;1201;22451;-72
2021/08/26 08:33:22;;;;;;;9.80;6.00;;;;;;;13.77;83.68;97831.09;233738;1201;22454;-72
2021/08/26 08:38:36;;;;;;;7.50;5.30;;;;;;;13.91;83.50;97833.10;233801;1202;23639;-73
2021/08/26 08:43:53;;;;;;;8.60;5.20;;;;;;;13.99;83.34;97837.27;233474;1201;25686;-71
2021/08/26 08:49:13;;;;;;;7.50;5.50;;;;;;;14.02;83.23;97832.61;233668;1201;22485;-70
2021/08/26 08:54:16;;;;;;;7.80;6.10;;;;;;;14.15;83.06;97830.98;233938;1201;24047;-73
2021/08/26 08:59:22;;;;;;;8.10;5.90;;;;;;;14.19;82.83;97836.03;234269;1201;25197;-73
2021/08/26 09:04:53;;;;;;;6.90;5.00;;;;;;;14.19;82.65;97837.42;233979;1195;25288;-71
2021/08/26 09:09:56;;;;;;;6.30;4.80;;;;;;;14.18;82.79;97842.77;234001;1201;24071;-73
2021/08/26 09:15:13;;;;;;;7.90;5.40;;;;;;;14.16;82.83;97836.92;233923;1202;24026;-73
2021/08/26 09:20:19;;;;;;;12.30;7.80;;;;;;;14.26;83.20;97835.03;233686;1202;26457;-72
2021/08/26 09:25:24;;;;;;;8.40;5.40;;;;;;;14.37;83.08;97838.83;233795;1202;22437;-72
2021/08/26 09:30:40;;;;;;;6.70;5.10;;;;;;;14.42;82.81;97836.73;234052;1202;22476;-72
2021/08/26 09:36:03;;;;;;;8.00;5.70;;;;;;;14.44;82.54;97839.52;233807;1196;23439;-73
2021/08/26 09:41:06;;;;;;;8.70;5.50;;;;;;;14.45;82.70;97838.10;233661;1201;25333;-73
2021/08/26 09:46:08;;;;;;;6.20;5.00;;;;;;;14.39;82.56;97833.83;233931;1200;24084;-71
2021/08/26 09:51:13;;;;;;;9.00;6.20;;;;;;;14.32;82.45;97833.36;233984;1201;22500;-71
2021/08/26 09:56:15;;;;;;;7.50;5.00;;;;;;;14.31;82.67;97829.02;233608;1202;22444;-73
2021/08/26 10:01:21;;;;;;;7.40;5.10;;;;;;;14.29;82.80;97825.42;233858;1193;22462;-71
2021/08/26 10:06:25;;;;;;;5.80;4.60;;;;;;;14.32;82.96;97823.34;233755;1201;23018;-73
2021/08/26 10:11:28;;;;;;;6.70;5.00;;;;;;;14.31;82.75;97821.48;233686;1202;24081;-72
2021/08/26 10:16:32;;;;;;;8.10;5.20;;;;;;;14.33;82.90;97822.16;233834;1202;22714;-71
2021/08/26 10:21:34;;;;;;;6.20;4.80;;;;;;;14.43;83.09;97820.00;233718;1203;22575;-72
2021/08/26 10:26:42;;;;;;;7.50;5.20;;;;;;;14.62;83.33;97818.77;233488;1202;24037;-73
2021/08/26 10:31:58;;;;;;;6.30;5.30;;;;;;;14.77;82.84;97817.12;233887;1202;24054;-70
2021/08/26 10:37:00;;;;;;;5.90;5.10;;;;;;;14.80;82.70;97820.95;236237;1201;22473;-71
2021/08/26 10:42:28;;;;;;;7.20;5.40;;;;;;;14.79;82.36;97825.96;233805;1201;24134;-70
2021/08/26 10:47:49;;;;;;;8.30;5.30;;;;;;;14.86;82.62;97822.34;234068;1201;25072;-71
2021/08/26 10:53:04;;;;;;;6.80;4.90;;;;;;;14.99;82.51;97820.17;233952;1205;22465;-71
2021/08/26 10:58:25;;;;;;;7.60;5.70;;;;;;;15.03;82.06;97818.92;233884;1203;22444;-72
2021/08/26 11:03:45;;;;;;;7.10;5.00;;;;;;;15.12;82.10;97820.40;234222;1201;22467;-72
2021/08/26 11:08:53;;;;;;;8.50;6.20;;;;;;;15.14;81.67;97821.45;234019;1202;24029;-71
2021/08/26 11:14:01;;;;;;;6.20;4.80;;;;;;;15.11;81.66;97820.14;233931;1202;23179;-73
2021/08/26 11:19:12;;;;;;;6.40;5.00;;;;;;;15.15;81.73;97826.35;234016;1208;24195;-72
2021/08/26 11:24:28;;;;;;;7.40;5.00;;;;;;;15.16;81.68;97825.98;234140;1205;24080;-71
2021/08/26 11:29:50;;;;;;;6.70;5.40;;;;;;;15.09;81.65;97823.33;233992;1201;24062;-72
2021/08/26 11:34:56;;;;;;;6.00;5.30;;;;;;;15.09;82.00;97829.49;234011;1201;25211;-72
2021/08/26 11:40:07;;;;;;;7.90;5.80;;;;;;;15.14;82.33;97821.36;234110;1206;22461;-73
2021/08/26 11:45:13;;;;;;;8.20;5.30;;;;;;;15.49;82.77;97811.08;234431;1203;22434;-73
2021/08/26 11:50:18;;;;;;;5.80;4.20;;;;;;;16.02;82.71;97804.08;234137;1201;22525;-72
2021/08/26 11:55:26;;;;;;;5.70;4.90;;;;;;;16.37;81.11;97803.84;234214;1196;22977;-72
2021/08/26 12:00:29;;;;;;;7.40;5.50;;;;;;;16.70;80.71;97804.89;234204;1202;22457;-72
2021/08/26 12:05:32;;;;;;;6.50;4.80;;;;;;;17.12;79.85;97806.88;234153;1199;24950;-72
2021/08/26 12:10:47;;;;;;;7.50;5.40;;;;;;;17.29;78.85;97803.98;234217;1206;22472;-73
2021/08/26 12:15:54;;;;;;;5.60;4.60;;;;;;;17.34;77.86;97794.81;233860;1204;24572;-73
2021/08/26 12:21:03;;;;;;;5.20;4.50;;;;;;;17.49;77.82;97790.14;233627;1202;24192;-72
2021/08/26 12:26:13;;;;;;;5.00;4.30;;;;;;;17.68;77.64;97787.55;233948;1202;22840;-72
2021/08/26 12:31:17;;;;;;;;;;;;;;;17.60;76.11;97784.02;233686;1201;24068;-70
2021/08/26 12:36:22;;;;;;;4.10;3.50;;;;;;;17.77;76.84;97779.88;233616;1201;22447;-72
2021/08/26 12:41:43;;;;;;;5.00;4.30;;;;;;;18.10;76.23;97769.15;233722;1201;22602;-70
2021/08/26 12:46:51;;;;;;;5.00;3.70;;;;;;;18.46;76.38;97766.05;233357;1209;22457;-72
2021/08/26 12:51:56;;;;;;;5.10;4.20;;;;;;;18.80;75.09;97765.84;233534;1202;22476;-72
2021/08/26 12:57:05;;;;;;;4.60;3.40;;;;;;;18.96;73.20;97775.69;233626;1201;23454;-72
2021/08/26 13:02:28;;;;;;;4.20;3.60;;;;;;;19.01;72.33;97769.62;233761;1200;22474;-74
2021/08/26 13:07:32;;;;;;;3.70;3.30;;;;;;;19.10;71.80;97776.09;233687;1201;24074;-72
2021/08/26 13:12:35;;;;;;;3.40;3.00;;;;;;;18.85;70.47;97777.94;233478;1203;22493;-72
2021/08/26 13:17:39;;;;;;;3.40;3.00;;;;;;;18.56;71.06;97783.58;233774;1205;24089;-71
2021/08/26 13:22:43;;;;;;;4.40;3.40;;;;;;;18.52;71.68;97774.38;233701;1208;22784;-71
2021/08/26 13:27:45;;;;;;;5.10;4.10;;;;;;;18.40;71.29;97775.51;234344;1201;25062;-75
2021/08/26 13:32:49;;;;;;;3.30;3.00;;;;;;;18.06;71.09;97794.02;234301;1203;25239;-74
2021/08/26 13:37:53;;;;;;;1.60;1.40;;;;;;;17.69;70.92;97808.86;234846;1201;24115;-71
2021/08/26 13:42:56;;;;;;;2.90;1.30;;;;;;;17.24;70.31;97829.41;234745;1201;24084;-74
2021/08/26 13:48:13;;;;;;;2.90;1.20;;;;;;;16.30;70.50;97831.23;235333;1203;22421;-82
2021/08/26 13:53:21;;;;;;;2.00;1.00;;;;;;;14.91;71.17;97812.90;234614;1203;24027;-78
2021/08/26 13:58:24;;;;;;;3.20;1.80;;;;;;;13.95;73.62;97779.77;234780;1195;23086;-80
2021/08/26 14:03:28;;;;;;;2.70;1.40;;;;;;;13.54;75.85;97768.58;235103;1206;24077;-79
2021/08/26 14:08:30;;;;;;;2.80;1.60;;;;;;;13.33;77.08;97782.20;234829;1206;23982;-77
2021/08/26 14:13:33;;;;;;;4.40;2.60;;;;;;;13.17;77.34;97778.61;235209;1202;22522;-81
2021/08/26 14:18:38;;;;;;;2.20;2.00;;;;;;;13.03;78.00;97781.60;235704;1203;24072;-80
2021/08/26 14:23:43;;;;;;;5.10;3.00;;;;;;;12.97;78.58;97771.48;235121;1201;25248;-81
2021/08/26 14:28:46;;;;;;;5.10;2.70;;;;;;;12.95;79.45;97763.33;236283;1201;22532;-81
2021/08/26 14:33:49;;;;;;;6.70;3.90;;;;;;;13.12;80.94;97753.63;235400;1202;24036;-80
2021/08/26 14:38:53;;;;;;;13.10;7.90;;;;;;;13.39;81.79;97758.05;235400;1194;24201;-79
2021/08/26 14:43:57;;;;;;;8.50;5.70;;;;;;;13.58;81.44;97752.11;234378;1201;24065;-79
2021/08/26 14:49:01;;;;;;;8.90;6.10;;;;;;;13.63;80.85;97743.80;234299;1196;23997;-78
2021/08/26 14:54:04;;;;;;;10.00;8.00;;;;;;;13.66;81.46;97726.54;234242;1202;22451;-77
2021/08/26 14:59:08;;;;;;;10.60;9.20;;;;;;;13.76;81.97;97725.16;234042;1202;24054;-79
2021/08/26 15:04:11;;;;;;;14.50;11.30;;;;;;;13.93;82.65;97742.79;233687;1203;24144;-81
2021/08/26 15:09:13;;;;;;;13.80;11.90;;;;;;;14.10;82.95;97743.85;233835;1202;24169;-76
2021/08/26 15:14:16;;;;;;;11.40;10.10;;;;;;;14.20;83.13;97737.26;233731;1201;24058;-83
2021/08/26 15:19:19;;;;;;;12.30;8.70;;;;;;;14.23;82.63;97735.79;234021;1202;25276;-77
2021/08/26 15:24:21;;;;;;;10.00;8.20;;;;;;;14.13;82.13;97743.58;233653;1205;22395;-76
2021/08/26 15:29:24;;;;;;;9.30;6.80;;;;;;;13.99;81.80;97745.05;233684;1194;24115;-76
2021/08/26 15:34:26;;;;;;;12.70;8.40;;;;;;;13.76;80.91;97764.67;233744;1200;25171;-77
2021/08/26 15:39:29;;;;;;;12.80;9.30;;;;;;;13.58;80.82;97781.77;233849;1201;24055;-78
2021/08/26 15:44:33;;;;;;;13.00;9.70;;;;;;;13.55;81.38;97782.23;233665;1202;25285;-77
2021/08/26 15:49:39;;;;;;;13.60;10.30;;;;;;;13.59;81.53;97779.80;233584;1208;22469;-77
2021/08/26 15:54:54;;;;;;;21.40;13.30;;;;;;;13.68;82.04;97776.56;233764;1202;24209;-76
2021/08/26 16:00:23;;;;;;;18.00;11.40;;;;;;;13.98;82.89;97770.63;233504;1202;24095;-77
2021/08/26 16:05:26;;;;;;;14.90;10.60;;;;;;;14.31;83.23;97769.05;233374;1202;22459;-85
2021/08/26 16:10:28;;;;;;;17.40;11.60;;;;;;;14.68;83.71;97770.42;233551;1200;24175;-79
2021/08/26 16:15:33;;;;;;;20.60;13.40;;;;;;;14.86;83.08;97775.42;233634;1202;24058;-76
2021/08/26 16:20:38;;;;;;;18.50;14.60;;;;;;;14.87;82.91;97764.21;233514;1203;24022;-74
2021/08/26 16:25:41;;;;;;;15.30;11.90;;;;;;;14.85;83.07;97763.15;233581;1196;24062;-76
2021/08/26 16:30:44;;;;;;;15.70;12.60;;;;;;;14.78;83.25;97770.35;233498;1194;22463;-77
2021/08/26 16:35:46;;;;;;;17.60;13.30;;;;;;;14.74;83.42;97807.73;233662;1202;24169;-78
2021/08/26 16:40:50;;;;;;;19.00;16.30;;;;;;;14.76;84.02;97809.94;235016;1202;22464;-79
2021/08/26 16:45:52;;;;;;;22.90;16.40;;;;;;;14.69;84.47;97807.59;235030;1202;22464;-79
2021/08/26 16:50:55;;;;;;;20.10;15.80;;;;;;;14.70;84.59;97826.93;234493;1198;24054;-79
2021/08/26 16:55:58;;;;;;;21.90;16.90;;;;;;;14.73;84.57;97831.26;234192;1201;25199;-80
2021/08/26 17:01:01;;;;;;;17.50;15.40;;;;;;;14.65;84.62;97833.27;234105;1205;24217;-80
2021/08/26 17:06:05;;;;;;;24.90;18.40;;;;;;;14.56;84.91;97841.73;233803;1203;22530;-79
2021/08/26 17:11:08;;;;;;;24.90;19.30;;;;;;;14.46;85.09;97831.80;233809;1202;24093;-78
2021/08/26 17:16:12;;;;;;;27.60;20.90;;;;;;;14.35;84.97;97827.84;233840;1208;25210;-78
2021/08/26 17:21:15;;;;;;;31.50;22.90;;;;;;;14.32;85.95;97834.36;233832;1203;24061;-79
2021/08/26 17:26:18;;;;;;;27.90;20.50;;;;;;;14.42;87.14;97836.06;233862;1208;24023;-79
2021/08/26 17:31:23;;;;;;;30.80;22.10;;;;;;;14.45;86.64;97845.86;233725;1202;24333;-80
2021/08/26 17:36:27;;;;;;;20.60;15.30;;;;;;;14.42;86.78;97841.44;234036;1201;22518;-78
2021/08/26 17:41:29;;;;;;;30.20;20.30;;;;;;;14.43;87.31;97841.49;233741;1201;22459;-77
2021/08/26 17:46:33;;;;;;;28.30;21.50;;;;;;;14.46;87.62;97846.14;233701;1201;25325;-79
2021/08/26 17:51:35;;;;;;;38.20;27.70;;;;;;;14.42;87.57;97842.45;233553;1201;26402;-81
2021/08/26 17:56:39;;;;;;;31.90;20.10;;;;;;;14.32;86.81;97852.29;233689;1201;25206;-76
2021/08/26 18:01:41;;;;;;;30.10;20.00;;;;;;;14.13;86.27;97868.98;233387;1201;24170;-77
2021/08/26 18:06:44;;;;;;;33.60;21.00;;;;;;;13.89;86.05;97872.08;233606;1201;23877;-79
2021/08/26 18:11:47;;;;;;;34.80;22.80;;;;;;;13.66;86.08;97879.17;233611;1205;25333;-77
2021/08/26 18:16:52;;;;;;;34.10;22.00;;;;;;;13.50;86.34;97883.95;234038;1205;25790;-77
2021/08/26 18:21:55;;;;;;;30.00;20.40;;;;;;;13.35;86.54;97887.34;234264;1201;24091;-80
2021/08/26 18:26:58;;;;;;;29.90;17.80;;;;;;;13.24;86.62;97894.38;234033;1202;24217;-80
2021/08/26 18:32:00;;;;;;;26.30;17.60;;;;;;;13.14;86.91;97905.67;233705;1201;25483;-79
2021/08/26 18:37:12;;;;;;;25.80;18.20;;;;;;;13.14;87.48;97903.96;233923;1202;24117;-79
2021/08/26 18:42:21;;;;;;;21.40;15.70;;;;;;;13.17;87.67;97901.42;234190;1203;24058;-79
2021/08/26 18:47:26;;;;;;;25.90;16.80;;;;;;;13.06;87.13;97904.99;234043;1208;22543;-78
2021/08/26 18:52:29;;;;;;;23.20;15.20;;;;;;;12.96;87.24;97905.90;234013;1201;22496;-80
2021/08/26 18:57:31;;;;;;;28.50;17.80;;;;;;;12.85;87.18;97909.55;234257;1203;22452;-79
2021/08/26 19:02:34;;;;;;;27.70;18.20;;;;;;;12.82;87.83;97904.59;234017;1204;24050;-80
2021/08/26 19:07:38;;;;;;;28.60;19.20;;;;;;;12.87;88.42;97910.32;234193;1201;22464;-79
2021/08/26 19:12:41;;;;;;;30.90;20.60;;;;;;;12.94;88.72;97913.60;234145;1201;24039;-79
2021/08/26 19:17:45;;;;;;;39.80;22.40;;;;;;;13.04;89.40;97915.81;234467;1201;22614;-80
2021/08/26 19:22:49;;;;;;;39.00;22.50;;;;;;;13.10;89.30;97916.73;234149;1202;24268;-79
2021/08/26 19:27:51;;;;;;;35.50;20.20;;;;;;;13.13;89.06;97920.48;234279;1201;22493;-81
2021/08/26 19:32:55;;;;;;;38.30;21.50;;;;;;;13.13;88.71;97932.38;234266;1201;24136;-79
2021/08/26 19:37:57;;;;;;;29.80;15.50;;;;;;;13.10;88.72;97936.78;234137;1201;24067;-80
2021/08/26 19:43:16;;;;;;;23.60;14.20;;;;;;;13.03;88.13;97939.05;234033;1194;22554;-79
2021/08/26 19:48:22;;;;;;;27.20;14.30;;;;;;;13.02;88.61;97937.85;234767;1196;24111;-80
2021/08/26 19:53:27;;;;;;;20.20;10.90;;;;;;;13.07;89.06;97936.97;234476;1201;24157;-79
2021/08/26 19:58:44;;;;;;;23.10;12.40;;;;;;;13.00;88.26;97936.49;233871;1202;24218;-78
2021/08/26 20:04:02;;;;;;;30.00;14.30;;;;;;;12.88;88.04;97938.98;234046;1203;22637;-79
2021/08/26 20:09:05;;;;;;;20.10;10.90;;;;;;;12.85;88.50;97940.66;234371;1201;24061;-81
2021/08/26 20:14:08;;;;;;;21.80;12.50;;;;;;;12.87;88.65;97942.36;234591;1201;25299;-81
2021/08/26 20:19:11;;;;;;;22.50;12.40;;;;;;;12.88;88.74;97944.00;234858;1201;24719;-81
2021/08/26 20:24:14;;;;;;;26.50;13.00;;;;;;;12.88;88.82;97942.83;235434;1201;24095;-80
2021/08/26 20:29:17;;;;;;;25.20;13.40;;;;;;;12.90;89.16;97948.01;235453;1193;24149;-80
2021/08/26 20:34:19;;;;;;;26.70;13.30;;;;;;;12.89;88.78;97948.09;235154;1201;24082;-80
2021/08/26 20:39:22;;;;;;;30.50;15.00;;;;;;;12.84;88.57;97952.61;234955;1208;25295;-80
2021/08/26 20:44:38;;;;;;;21.40;12.10;;;;;;;12.89;89.18;97959.16;235372;1193;24064;-80
2021/08/26 20:50:03;;;;;;;28.50;15.20;;;;;;;12.88;88.73;97962.17;234771;1195;22477;-78
2021/08/26 20:55:08;;;;;;;27.90;15.50;;;;;;;12.87;88.82;97963.23;234056;1201;22469;-79
2021/08/26 21:00:12;;;;;;;25.20;13.80;;;;;;;12.88;89.14;97959.52;234589;1203;23083;-79
2021/08/26 21:05:14;;;;;;;21.20;11.90;;;;;;;12.87;88.99;97954.85;234063;1201;24048;-78
2021/08/26 21:10:17;;;;;;;25.20;12.80;;;;;;;12.83;89.14;97953.20;234110;1201;24249;-80
2021/08/26 21:15:35;;;;;;;26.80;12.50;;;;;;;12.82;89.26;97948.29;234354;1201;25156;-80
2021/08/26 21:20:39;;;;;;;25.50;12.00;;;;;;;12.79;89.33;97945.20;234580;1201;25183;-82
2021/08/26 21:26:07;;;;;;;26.90;12.90;;;;;;;12.67;89.07;97949.55;234308;1193;24204;-79
2021/08/26 21:31:16;;;;;;;24.30;11.40;;;;;;;12.60;89.88;97950.96;234202;1201;24163;-79
2021/08/26 21:36:19;;;;;;;23.40;10.90;;;;;;;12.56;89.99;97948.95;233864;1201;24205;-78
2021/08/26 21:41:22;;;;;;;23.90;10.50;;;;;;;12.51;90.22;97943.83;234390;1201;24202;-79
2021/08/26 21:46:25;;;;;;;25.10;10.50;;;;;;;12.44;90.20;97954.15;233862;1201;24227;-80
2021/08/26 21:51:29;;;;;;;21.80;9.70;;;;;;;12.31;89.71;97958.28;233832;1200;24032;-80
2021/08/26 21:56:32;;;;;;;23.20;10.10;;;;;;;12.28;90.18;97959.36;233939;1202;24145;-77
2021/08/26 22:01:49;;;;;;;25.60;9.40;;;;;;;12.25;90.00;97966.63;234157;1196;24048;-79
2021/08/26 22:07:06;;;;;;;25.80;9.90;;;;;;;12.20;89.87;97963.80;233515;1202;24059;-80
2021/08/26 22:12:09;;;;;;;25.90;8.90;;;;;;;12.13;89.56;97966.37;233888;1202;24032;-80
2021/08/26 22:17:14;;;;;;;24.90;10.10;;;;;;;12.03;89.44;97979.58;233779;1201;24100;-78
2021/08/26 22:22:16;;;;;;;20.80;7.70;;;;;;;11.94;89.14;97998.33;233710;1201;22571;-79
2021/08/26 22:27:19;;;;;;;22.70;8.90;;;;;;;11.80;88.76;98016.49;233881;1202;24062;-80
2021/08/26 22:32:35;;;;;;;20.90;8.50;;;;;;;11.71;88.87;98031.03;233761;1202;25326;-79
2021/08/26 22:37:37;;;;;;;17.10;7.90;;;;;;;11.63;88.89;98046.33;233684;1201;24506;-78
2021/08/26 22:42:40;;;;;;;20.20;7.80;;;;;;;11.63;89.30;98051.34;233963;1202;22567;-80
2021/08/26 22:47:44;;;;;;;23.70;10.50;;;;;;;11.63;89.56;98059.27;233742;1201;22378;-77
2021/08/26 22:52:50;;;;;;;25.80;10.40;;;;;;;11.67;89.85;98061.95;233601;1201;22450;-79
2021/08/26 22:57:54;;;;;;;29.00;10.80;;;;;;;11.73;90.01;98060.33;233798;1201;24045;-81
2021/08/26 23:03:16;;;;;;;23.80;10.10;;;;;;;11.84;90.54;98060.80;233777;1203;24089;-78
2021/08/26 23:08:19;;;;;;;21.80;9.10;;;;;;;11.94;90.49;98062.63;233954;1201;24050;-79
2021/08/26 23:13:22;;;;;;;26.40;9.90;;;;;;;12.02;90.46;98062.66;233721;1195;25209;-79
2021/08/26 23:18:26;;;;;;;18.40;7.90;;;;;;;12.05;90.16;98064.70;233923;1202;24084;-79
2021/08/26 23:23:30;;;;;;;18.40;7.80;;;;;;;12.04;89.86;98078.34;233707;1201;24035;-80
2021/08/26 23:28:33;;;;;;;25.90;9.10;;;;;;;12.06;90.15;98072.90;234500;1195;22464;-79
2021/08/26 23:33:35;;;;;;;22.00;8.40;;;;;;;12.15;90.65;98071.98;233937;1202;24053;-78
2021/08/26 23:38:38;;;;;;;25.20;9.00;;;;;;;12.26;90.70;98071.61;234367;1201;22459;-81